Time;durP1;ratioP1;P1;durP2;ratioP2;P2;SDS_P1;SDS_P2;PMS_P1;PMS_P2;Temp;Humidity;BMP_temperature;BMP_pressure;BME280_temperature;BME280_humidity;BME280_pressure;Samples;Min_cycle;Max_cycle;Signal;HPM_P1;HPM_P2
2023/06/13 00:00:12;;;;;;;;;;;;;;;-141.59;100.00;61776.25;5008021;28;19932;-76
2023/06/13 00:02:39;;;;;;;;;;;;;;;-141.59;100.00;61776.25;5025792;28;19983;-76
2023/06/13 00:05:10;;;;;;;;;;;;;;;-141.59;100.00;61776.25;5026945;28;19929;-77
2023/06/13 00:07:37;;;;;;;;;;;;;;;-141.59;100.00;61776.25;5021136;28;19933;-76
2023/06/13 00:10:05;;;;;;;;;;;;;;;-141.59;100.00;61776.25;5033107;28;19951;-77
2023/06/13 00:12:32;;;;;;;;;;;;;;;-141.59;100.00;61776.25;5019752;28;19925;-76
2023/06/13 00:15:01;;;;;;;;;;;;;;;-141.59;100.00;61776.25;5023508;28;19925;-76
2023/06/13 00:17:31;;;;;;;;;;;;;;;-141.59;100.00;61776.25;5024389;28;20029;-76
2023/06/13 00:19:59;;;;;;;;;;;;;;;-141.59;100.00;61776.25;5032160;28;19925;-76
2023/06/13 00:22:28;;;;;;;;;;;;;;;-141.59;100.00;61776.25;5022313;28;19925;-77
2023/06/13 00:24:55;;;;;;;;;;;;;;;-141.59;100.00;61776.25;5017431;28;19972;-76
2023/06/13 00:27:21;;;;;;;;;;;;;;;-141.59;100.00;61776.25;5022610;28;19933;-76
2023/06/13 00:29:48;;;;;;;;;;;;;;;-141.59;100.00;61776.25;5019393;28;19932;-77
2023/06/13 00:32:15;;;;;;;;;;;;;;;-141.59;100.00;61776.25;5028088;28;19929;-76
2023/06/13 00:34:43;;;;;;;;;;;;;;;-141.59;100.00;61776.25;5022963;28;19972;-76
2023/06/13 00:37:12;;;;;;;;;;;;;;;-141.59;100.00;61776.25;5021280;28;19925;-76
2023/06/13 00:39:41;;;;;;;;;;;;;;;-141.59;100.00;61776.25;5019352;28;19932;-75
2023/06/13 00:42:08;;;;;;;;;;;;;;;-141.59;100.00;61776.25;5020633;28;19933;-76
2023/06/13 00:44:35;;;;;;;;;;;;;;;-141.59;100.00;61776.25;5023453;28;19975;-76
2023/06/13 00:47:03;;;;;;;;;;;;;;;-141.59;100.00;61776.25;5021924;28;19925;-76
2023/06/13 00:49:31;;;;;;;;;;;;;;;-141.59;100.00;61776.25;5036693;28;19925;-76
2023/06/13 00:52:00;;;;;;;;;;;;;;;-141.59;100.00;61776.25;5024834;28;19936;-76
2023/06/13 00:54:29;;;;;;;;;;;;;;;-141.59;100.00;61776.25;5019841;28;19926;-75
2023/06/13 00:56:57;;;;;;;;;;;;;;;-141.59;100.00;61776.25;5024235;28;19979;-76
2023/06/13 00:59:24;;;;;;;;;;;;;;;-141.59;100.00;61776.25;5028019;28;19932;-76
2023/06/13 01:01:52;;;;;;;;;;;;;;;-141.59;100.00;61776.25;5022428;28;19925;-76
2023/06/13 01:04:19;;;;;;;;;;;;;;;-141.59;100.00;61776.25;5017968;28;19936;-76
2023/06/13 01:06:46;;;;;;;;;;;;;;;-141.59;100.00;61776.25;5031595;22;19929;-77
2023/06/13 01:09:17;;;;;;;;;;;;;;;-141.59;100.00;61776.25;5008721;28;19933;-77
2023/06/13 01:11:52;;;;;;;;;;;;;;;-141.59;100.00;61776.25;5023720;28;19933;-78
2023/06/13 01:14:24;;;;;;;;;;;;;;;-141.59;100.00;61776.25;4999944;28;19926;-80
2023/06/13 01:16:56;;;;;;;;;;;;;;;-141.59;100.00;61776.25;5017533;28;19926;-78
2023/06/13 01:19:28;;;;;;;;;;;;;;;-141.59;100.00;61776.25;5012944;28;19948;-77
2023/06/13 01:21:57;;;;;;;;;;;;;;;-141.59;100.00;61776.25;4994441;28;19929;-77
2023/06/13 01:24:28;;;;;;;;;;;;;;;-141.59;100.00;61776.25;5019805;28;19933;-79
2023/06/13 01:26:57;;;;;;;;;;;;;;;-141.59;100.00;61776.25;5018973;28;19940;-77
2023/06/13 01:29:24;;;;;;;;;;;;;;;-141.59;100.00;61776.25;5025849;28;19936;-78
2023/06/13 01:32:02;;;;;;;;;;;;;;;16.78;100.00;95561.13;5062352;27;19925;-79
2023/06/13 01:34:30;;;;;;;;;;;;;;;16.71;100.00;95557.94;5071003;27;19925;-79
2023/06/13 01:36:57;;;;;;;;;;;;;;;16.65;100.00;95564.53;5056348;27;19925;-79
2023/06/13 01:39:23;;;;;;;;;;;;;;;16.70;100.00;95555.50;5039108;27;19970;-79
2023/06/13 01:41:51;;;;;;;;;;;;;;;16.71;100.00;95548.94;5045197;27;19924;-78
2023/06/13 01:44:19;;;;;;;;;;;;;;;16.69;100.00;95548.41;5039878;27;19932;-79
2023/06/13 01:46:48;;;;;;;;;;;;;;;16.70;100.00;95550.03;5039661;27;19925;-79
2023/06/13 01:49:21;;;;;;;;;;;;;;;16.70;100.00;95542.66;5064285;27;19933;-79
2023/06/13 01:51:52;;;;;;;;;;;;;;;16.73;100.00;95539.38;5120726;27;19992;-79
2023/06/13 01:54:21;;;;;;;;;;;;;;;16.70;100.00;95556.31;5038411;27;20019;-79
2023/06/13 01:56:50;;;;;;;;;;;;;;;16.65;100.00;95553.63;5071076;27;19932;-79
2023/06/13 01:59:20;;;;;;;;;;;;;;;16.64;100.00;95552.81;5067279;27;19925;-79
2023/06/13 02:01:48;;;;;;;;;;;;;;;16.64;100.00;95552.81;5029608;27;20040;-78
2023/06/13 02:04:16;;;;;;;;;;;;;;;16.65;100.00;95542.75;5060241;27;19925;-79
2023/06/13 02:06:44;;;;;;;;;;;;;;;16.68;100.00;95554.97;5066949;27;19970;-79
2023/06/13 02:09:11;;;;;;;;;;;;;;;16.71;100.00;95551.66;5037884;27;19925;-79
2023/06/13 02:11:38;;;;;;;;;;;;;;;16.75;100.00;95541.81;5053975;27;19929;-79
2023/06/13 02:14:06;;;;;;;;;;;;;;;16.73;100.00;95539.38;5046335;27;19940;-79
2023/06/13 02:16:33;;;;;;;;;;;;;;;16.75;100.00;95547.28;5033782;27;19931;-79
2023/06/13 02:18:59;;;;;;;;;;;;;;;16.72;100.00;95543.19;5068895;27;19947;-79
2023/06/13 02:21:27;;;;;;;;;;;;;;;16.72;100.00;95550.56;5034952;27;19936;-81
2023/06/13 02:23:55;;;;;;;;;;;;;;;16.70;100.00;95547.31;5037591;27;20123;-79
2023/06/13 02:26:23;;;;;;;;;;;;;;;16.66;100.00;95543.56;5039785;27;19925;-80
2023/06/13 02:28:49;;;;;;;;;;;;;;;16.55;100.00;95543.63;5032684;27;20001;-79
2023/06/13 02:31:17;;;;;;;;;;;;;;;16.50;100.00;95551.03;5067902;27;19948;-80
2023/06/13 02:33:44;;;;;;;;;;;;;;;16.45;100.00;95545.63;5038835;27;20015;-79
2023/06/13 02:36:12;;;;;;;;;;;;;;;16.40;100.00;95543.75;5037266;27;19931;-79
2023/06/13 02:38:41;;;;;;;;;;;;;;;16.42;100.00;95543.44;5052840;27;19936;-79
2023/06/13 02:41:10;;;;;;;;;;;;;;;16.42;100.00;95548.91;5036901;27;20177;-80
2023/06/13 02:43:36;;;;;;;;;;;;;;;16.43;100.00;95545.91;5054128;27;19937;-80
2023/06/13 02:46:03;;;;;;;;;;;;;;;16.42;100.00;95551.63;5018813;27;19933;-80
2023/06/13 02:48:30;;;;;;;;;;;;;;;16.35;100.00;95543.78;5031982;27;19933;-79
2023/06/13 02:50:57;;;;;;;;;;;;;;;16.32;100.00;95549.00;5053121;27;19925;-79
2023/06/13 02:53:24;;;;;;;;;;;;;;;16.36;100.00;95544.59;5024309;27;20010;-79
2023/06/13 02:55:52;;;;;;;;;;;;;;;16.38;100.00;95545.94;5022193;27;19951;-79
2023/06/13 02:58:21;;;;;;;;;;;;;;;16.42;100.00;95544.25;5024068;28;19956;-79
2023/06/13 03:00:49;;;;;;;;;;;;;;;16.44;100.00;95549.44;5032848;27;19929;-81
2023/06/13 03:03:18;;;;;;;;;;;;;;;16.48;100.00;95539.59;5054360;27;19925;-79
2023/06/13 03:05:47;;;;;;;;;;;;;;;16.51;100.00;95548.00;5061479;27;20020;-79
2023/06/13 03:08:18;;;;;;;;;;;;;;;16.53;100.00;95545.81;5021005;27;19932;-80
2023/06/13 03:10:45;;;;;;;;;;;;;;;16.49;100.00;95555.66;5025590;28;19932;-79
2023/06/13 03:13:12;;;;;;;;;;;;;;;16.41;100.00;95556.28;5056367;27;19992;-79
2023/06/13 03:15:41;;;;;;;;;;;;;;;16.35;100.00;95546.50;5020897;27;19924;-80
2023/06/13 03:18:07;;;;;;;;;;;;;;;16.36;100.00;95553.59;5055926;27;20027;-79
2023/06/13 03:20:37;;;;;;;;;;;;;;;16.39;100.00;95561.22;5022974;27;20025;-79
2023/06/13 03:23:05;;;;;;;;;;;;;;;16.39;100.00;95558.47;5021577;27;20024;-79
2023/06/13 03:25:32;;;;;;;;;;;;;;;16.40;100.00;95557.38;5022835;27;19944;-79
2023/06/13 03:27:58;;;;;;;;;;;;;;;16.45;100.00;95560.06;5025039;27;19925;-79
2023/06/13 03:30:25;;;;;;;;;;;;;;;16.46;100.00;95566.31;5044139;27;19932;-79
2023/06/13 03:32:54;;;;;;;;;;;;;;;16.44;100.00;95569.31;5025972;27;19950;-79
2023/06/13 03:35:24;;;;;;;;;;;;;;;16.37;100.00;95568.84;5023916;27;19940;-79
2023/06/13 03:37:50;;;;;;;;;;;;;;;16.39;100.00;95574.00;5026453;27;19986;-80
2023/06/13 03:40:17;;;;;;;;;;;;;;;16.32;100.00;95582.53;5051278;27;19929;-79
2023/06/13 03:42:44;;;;;;;;;;;;;;;16.30;100.00;95579.25;5022927;27;19936;-78
2023/06/13 03:45:15;;;;;;;;;;;;;;;16.35;100.00;95576.47;5022202;27;19924;-80
2023/06/13 03:47:41;;;;;;;;;;;;;;;16.37;100.00;95573.47;5056018;27;19925;-79
2023/06/13 03:50:10;;;;;;;;;;;;;;;16.38;100.00;95575.91;5039872;28;19925;-79
2023/06/13 03:52:37;;;;;;;;;;;;;;;16.45;100.00;95575.59;5020141;27;20014;-79
2023/06/13 03:55:04;;;;;;;;;;;;;;;16.51;100.00;95568.97;5026822;28;19925;-79
2023/06/13 03:57:31;;;;;;;;;;;;;;;16.54;100.00;95571.97;5059552;27;20056;-79
2023/06/13 04:00:00;;;;;;;;;;;;;;;16.57;100.00;95568.66;5028644;28;19951;-79
2023/06/13 04:02:27;;;;;;;;;;;;;;;16.55;100.00;95568.13;5033909;27;20028;-78
2023/06/13 04:04:56;;;;;;;;;;;;;;;16.53;100.00;95577.69;5025822;28;19924;-79
2023/06/13 04:07:25;;;;;;;;;;;;;;;16.50;100.00;95573.63;5045476;27;20014;-79
2023/06/13 04:09:51;;;;;;;;;;;;;;;16.49;100.00;95574.75;5023746;27;19924;-79
2023/06/13 04:12:18;;;;;;;;;;;;;;;16.48;100.00;95575.84;5037648;27;19992;-79
2023/06/13 04:14:45;;;;;;;;;;;;;;;16.49;100.00;95576.66;5024892;28;19925;-79
2023/06/13 04:17:11;;;;;;;;;;;;;;;16.54;100.00;95577.41;5025333;27;19939;-79
2023/06/13 04:19:39;;;;;;;;;;;;;;;16.57;100.00;95576.84;5036544;27;19925;-79
2023/06/13 04:22:06;;;;;;;;;;;;;;;16.51;100.00;95574.44;5058766;27;19925;-79
2023/06/13 04:24:35;;;;;;;;;;;;;;;16.49;100.00;95571.19;5055286;27;19928;-79
2023/06/13 04:27:03;;;;;;;;;;;;;;;16.48;100.00;95583.19;5015137;27;19925;-78
2023/06/13 04:29:30;;;;;;;;;;;;;;;16.51;100.00;95580.69;5056462;27;20012;-79
2023/06/13 04:31:57;;;;;;;;;;;;;;;16.56;100.00;95580.66;5042773;27;19933;-78
2023/06/13 04:34:24;;;;;;;;;;;;;;;16.65;100.00;95580.91;5023648;27;19925;-78
2023/06/13 04:36:55;;;;;;;;;;;;;;;16.75;100.00;95588.16;5027990;27;19955;-79
2023/06/13 04:39:23;;;;;;;;;;;;;;;16.84;100.00;95583.72;5055386;27;20012;-79
2023/06/13 04:41:55;;;;;;;;;;;;;;;16.93;100.00;95590.13;5040845;27;19925;-79
2023/06/13 04:44:25;;;;;;;;;;;;;;;16.92;100.00;95596.72;5021424;28;20171;-79
2023/06/13 04:47:01;;;;;;;;;;;;;;;16.97;100.00;95596.66;5024300;27;20186;-79
2023/06/13 04:49:28;;;;;;;;;;;;;;;16.93;100.00;95609.22;5022233;28;19955;-78
2023/06/13 04:51:55;;;;;;;;;;;;;;;16.89;100.00;95594.56;5021951;27;20062;-78
2023/06/13 04:54:23;;;;;;;;;;;;;;;16.90;100.00;95596.19;5026137;28;20284;-79
2023/06/13 04:56:50;;;;;;;;;;;;;;;16.96;100.00;95597.75;5061723;27;19925;-78
2023/06/13 04:59:19;;;;;;;;;;;;;;;17.04;100.00;95597.13;5023420;28;19932;-79
2023/06/13 05:01:47;;;;;;;;;;;;;;;17.12;100.00;95606.59;5026710;27;19925;-79
2023/06/13 05:04:15;;;;;;;;;;;;;;;17.15;100.00;95608.75;5024707;27;19931;-78
2023/06/13 05:06:41;;;;;;;;;;;;;;;17.15;100.00;95606.00;5025448;27;19990;-79
2023/06/13 05:09:08;;;;;;;;;;;;;;;17.20;100.00;95601.31;5041094;27;19929;-79
2023/06/13 05:11:35;;;;;;;;;;;;;;;17.27;100.00;95601.75;5019543;28;19925;-80
2023/06/13 05:14:02;;;;;;;;;;;;;;;17.29;100.00;95599.56;5041203;27;20172;-79
2023/06/13 05:16:30;;;;;;;;;;;;;;;17.29;100.00;95596.03;5029262;28;19932;-79
2023/06/13 05:19:00;;;;;;;;;;;;;;;17.20;100.00;95601.31;5027012;28;19926;-79
2023/06/13 05:21:28;;;;;;;;;;;;;;;17.18;100.00;95610.91;5052220;27;19932;-79
2023/06/13 05:23:55;;;;;;;;;;;;;;;17.14;100.00;95604.38;5031738;27;19925;-80
2023/06/13 05:26:21;;;;;;;;;;;;;;;17.13;100.00;95608.22;5035588;27;19924;-79
2023/06/13 05:28:48;;;;;;;;;;;;;;;17.19;100.00;95605.13;5023059;28;20015;-77
2023/06/13 05:31:15;;;;;;;;;;;;;;;17.26;100.00;95607.53;5051273;27;20181;-80
2023/06/13 05:33:43;;;;;;;;;;;;;;;17.32;100.00;95609.09;5021734;27;19925;-79
2023/06/13 05:36:11;;;;;;;;;;;;;;;17.39;100.00;95604.91;5023532;28;19936;-78
2023/06/13 05:38:38;;;;;;;;;;;;;;;17.50;100.00;95602.06;5019166;28;19941;-79
2023/06/13 05:41:05;;;;;;;;;;;;;;;17.57;100.00;95597.88;5020610;28;19977;-79
2023/06/13 05:43:32;;;;;;;;;;;;;;;17.66;100.00;95595.34;5033775;27;19944;-80
2023/06/13 05:45:59;;;;;;;;;;;;;;;17.67;100.00;95594.22;5065040;27;19925;-80
2023/06/13 05:48:26;;;;;;;;;;;;;;;17.70;100.00;95593.63;5024105;27;20028;-80
2023/06/13 05:50:54;;;;;;;;;;;;;;;17.70;100.00;95590.91;5043089;27;19925;-79
2023/06/13 05:53:20;;;;;;;;;;;;;;;17.68;100.00;95588.47;5022908;27;19940;-79
2023/06/13 05:55:47;;;;;;;;;;;;;;;17.62;100.00;95594.28;5052277;27;19932;-80
